Time;durP1;ratioP1;P1;durP2;ratioP2;P2;SDS_P1;SDS_P2;PMS_P1;PMS_P2;Temp;Humidity;BMP_temperature;BMP_pressure;BME280_temperature;BME280_humidity;BME280_pressure;Samples;Min_cycle;Max_cycle;Signal;HPM_P1;HPM_P2
2020/12/23 00:01:13;;;;;;;0.30;0.30;;;;;;;6.27;82.80;99612.53;5103946;28;20521;-70
2020/12/23 00:03:39;;;;;;;0.30;0.30;;;;;;;6.25;82.66;99611.66;5103649;28;20111;-70
2020/12/23 00:06:04;;;;;;;0.30;0.30;;;;;;;6.24;82.87;99612.53;5103673;28;20040;-69
2020/12/23 00:08:33;;;;;;;0.30;0.30;;;;;;;6.18;83.04;99601.38;5102657;28;20047;-70
2020/12/23 00:10:58;;;;;;;0.30;0.30;;;;;;;6.16;82.82;99608.28;5102436;28;20036;-71
2020/12/23 00:13:24;;;;;;;0.30;0.30;;;;;;;6.09;83.17;99596.25;5103412;28;20084;-70
2020/12/23 00:15:49;;;;;;;0.30;0.30;;;;;;;6.04;83.40;99590.22;5101553;28;20024;-71
2020/12/23 00:18:14;;;;;;;0.30;0.30;;;;;;;6.05;83.64;99599.72;5103571;28;20023;-70
2020/12/23 00:20:40;;;;;;;0.20;0.20;;;;;;;6.07;83.33;99610.88;5103513;28;20228;-71
2020/12/23 00:23:06;;;;;;;0.20;0.20;;;;;;;6.01;83.65;99597.97;5103703;28;20039;-70
2020/12/23 00:25:31;;;;;;;0.30;0.30;;;;;;;6.09;83.63;99618.63;5103406;28;20034;-71
2020/12/23 00:27:56;;;;;;;0.30;0.30;;;;;;;6.15;83.97;99611.69;5103726;28;20023;-70
2020/12/23 00:30:22;;;;;;;0.40;0.40;;;;;;;6.05;83.86;99605.72;5103231;28;20046;-71
2020/12/23 00:32:47;;;;;;;0.50;0.50;;;;;;;6.16;83.96;99620.31;5103484;28;20026;-71
2020/12/23 00:35:13;;;;;;;0.73;0.73;;;;;;;6.12;83.80;99609.13;5103416;28;20024;-70
2020/12/23 00:37:38;;;;;;;0.30;0.30;;;;;;;6.22;83.63;99629.72;5103354;28;20488;-70
2020/12/23 00:40:04;;;;;;;0.30;0.30;;;;;;;6.24;83.94;99625.44;5103459;28;20032;-70
2020/12/23 00:42:30;;;;;;;0.30;0.30;;;;;;;6.30;83.33;99633.13;5103405;28;20106;-70
2020/12/23 00:44:57;;;;;;;0.30;0.30;;;;;;;6.33;83.06;99633.13;5102959;28;20024;-71
2020/12/23 00:47:23;;;;;;;0.40;0.40;;;;;;;6.33;82.95;99630.53;5103459;28;20023;-70
2020/12/23 00:49:49;;;;;;;0.30;0.30;;;;;;;6.40;82.99;99634.84;5103311;28;20023;-70
2020/12/23 00:52:14;;;;;;;0.30;0.30;;;;;;;6.43;83.02;99639.97;5103146;28;20032;-70
2020/12/23 00:54:39;;;;;;;0.30;0.30;;;;;;;6.41;82.87;99610.75;5103238;28;20084;-73
2020/12/23 00:57:05;;;;;;;0.30;0.30;;;;;;;6.46;82.97;99631.38;5103471;28;20027;-71
2020/12/23 00:59:30;;;;;;;0.30;0.30;;;;;;;6.40;82.58;99637.41;5103089;28;20492;-73
2020/12/23 01:01:57;;;;;;;0.32;0.32;;;;;;;6.44;82.98;99644.25;5103166;28;20499;-71
2020/12/23 01:04:22;;;;;;;0.30;0.30;;;;;;;6.44;82.76;99644.25;5102999;28;20030;-70
2020/12/23 01:06:48;;;;;;;0.22;0.22;;;;;;;6.47;83.54;99650.28;5103140;28;20427;-70
2020/12/23 01:09:13;;;;;;;0.30;0.30;;;;;;;6.45;82.69;99653.69;5102955;28;20047;-72
2020/12/23 01:11:38;;;;;;;0.30;0.30;;;;;;;6.49;82.98;99653.69;5101809;28;20016;-69
2020/12/23 01:14:04;;;;;;;0.30;0.30;;;;;;;6.48;83.33;99647.69;5102741;28;20020;-71
2020/12/23 01:16:29;;;;;;;0.50;0.50;;;;;;;6.44;82.69;99648.56;5103219;28;20032;-70
2020/12/23 01:18:54;;;;;;;0.30;0.30;;;;;;;6.44;82.79;99649.41;5103178;28;20027;-70
2020/12/23 01:21:20;;;;;;;2.15;2.05;;;;;;;6.41;82.97;99646.84;5103303;28;20025;-70
2020/12/23 01:23:45;;;;;;;0.77;0.77;;;;;;;6.39;82.72;99634.84;5103292;28;20020;-70
2020/12/23 01:26:11;;;;;;;0.30;0.30;;;;;;;6.43;82.86;99642.56;5103066;28;20028;-70
2020/12/23 01:28:36;;;;;;;0.30;0.30;;;;;;;6.45;82.95;99648.53;5106487;28;20178;-71
2020/12/23 01:31:05;;;;;;;0.40;0.40;;;;;;;6.49;83.38;99645.97;5105819;28;20349;-71
2020/12/23 01:33:30;;;;;;;15.00;2.60;;;;;;;6.54;83.08;99649.38;5106517;28;20024;-71
2020/12/23 01:35:56;;;;;;;0.30;0.30;;;;;;;6.52;82.64;99654.53;5106738;28;20091;-71
2020/12/23 01:38:21;;;;;;;0.30;0.30;;;;;;;6.54;82.83;99651.97;5106793;28;20020;-70
2020/12/23 01:40:46;;;;;;;0.30;0.30;;;;;;;6.48;82.49;99646.84;5106742;28;20448;-71
2020/12/23 01:43:12;;;;;;;0.30;0.30;;;;;;;6.45;82.49;99653.69;5106451;28;20042;-69
2020/12/23 01:45:37;;;;;;;0.82;0.82;;;;;;;6.42;82.68;99655.47;5106314;28;20024;-70
2020/12/23 01:48:15;;;;;;;0.38;0.38;;;;;;;6.39;82.77;99647.75;5106847;28;20031;-70
2020/12/23 01:50:40;;;;;;;0.30;0.30;;;;;;;6.34;82.77;99654.63;5106484;28;20020;-70
2020/12/23 01:53:06;;;;;;;0.30;0.30;;;;;;;6.29;83.02;99642.59;5106485;28;20027;-69
2020/12/23 01:55:31;;;;;;;1.98;1.02;;;;;;;6.28;83.26;99637.44;5106275;28;20056;-69
2020/12/23 01:57:57;;;;;;;0.30;0.30;;;;;;;6.24;83.64;99635.75;5106135;28;20024;-69
2020/12/23 02:00:22;;;;;;;0.30;0.30;;;;;;;6.27;83.82;99636.59;5105979;28;20030;-69
2020/12/23 02:02:51;;;;;;;0.30;0.30;;;;;;;6.22;83.63;99633.16;5106293;28;20028;-69
2020/12/23 02:05:18;;;;;;;0.30;0.30;;;;;;;6.19;83.77;99628.88;5106319;28;20048;-70
2020/12/23 02:07:44;;;;;;;0.30;0.30;;;;;;;6.17;84.04;99622.00;5106299;28;20050;-69
2020/12/23 02:10:09;;;;;;;0.30;0.30;;;;;;;6.10;84.08;99620.31;5104864;28;20034;-70
2020/12/23 02:12:35;;;;;;;1.10;1.10;;;;;;;6.07;84.22;99629.75;5105943;28;20024;-70
2020/12/23 02:15:11;;;;;;;0.30;0.30;;;;;;;6.07;84.10;99627.19;5105678;28;20047;-69
2020/12/23 02:17:37;;;;;;;0.30;0.30;;;;;;;6.06;84.33;99630.63;5106050;28;20016;-69
2020/12/23 02:20:07;;;;;;;0.35;0.35;;;;;;;6.07;84.44;99626.34;5106043;28;20057;-70
2020/12/23 02:22:33;;;;;;;0.30;0.30;;;;;;;6.05;84.60;99626.31;5105876;28;20035;-70
2020/12/23 02:24:58;;;;;;;0.30;0.30;;;;;;;6.05;84.91;99625.50;5105610;28;20035;-69
2020/12/23 02:27:24;;;;;;;0.30;0.30;;;;;;;6.06;85.07;99629.78;5105820;28;20031;-69
2020/12/23 02:29:53;;;;;;;0.40;0.40;;;;;;;6.07;85.32;99642.66;5104004;28;20070;-69
2020/12/23 02:32:19;;;;;;;0.30;0.30;;;;;;;6.10;85.14;99639.22;5105872;28;20581;-70
2020/12/23 02:34:45;;;;;;;0.30;0.30;;;;;;;6.15;85.24;99639.22;5105345;28;20031;-69
2020/12/23 02:37:11;;;;;;;0.30;0.30;;;;;;;6.23;85.05;99647.75;5105468;28;20044;-69
2020/12/23 02:39:38;;;;;;;0.30;0.30;;;;;;;6.20;85.21;99638.31;5105392;28;20074;-70
2020/12/23 02:42:05;;;;;;;0.30;0.30;;;;;;;6.19;85.21;99634.03;5105382;28;20024;-70
2020/12/23 02:44:31;;;;;;;0.40;0.40;;;;;;;6.20;85.09;99634.88;5104995;28;20028;-71
2020/12/23 02:46:57;;;;;;;0.30;0.30;;;;;;;6.20;84.81;99638.31;5105594;28;20377;-70
2020/12/23 02:49:24;;;;;;;0.30;0.30;;;;;;;6.13;84.28;99635.78;5105250;28;20023;-71
2020/12/23 02:51:49;;;;;;;0.30;0.30;;;;;;;6.11;83.64;99635.78;5105304;28;20164;-70
2020/12/23 02:54:15;;;;;;;0.30;0.30;;;;;;;6.09;83.83;99634.06;5105133;28;20059;-70
2020/12/23 02:56:40;;;;;;;0.30;0.30;;;;;;;6.04;83.87;99627.19;5105313;28;20020;-70
2020/12/23 02:59:06;;;;;;;0.30;0.30;;;;;;;6.00;84.39;99632.31;5104817;28;20101;-70
2020/12/23 03:01:32;;;;;;;0.40;0.40;;;;;;;5.98;84.62;99629.75;5103725;28;20088;-70
2020/12/23 03:03:57;;;;;;;0.30;0.30;;;;;;;5.94;84.77;99626.31;5104986;28;20045;-71
2020/12/23 03:06:22;;;;;;;0.30;0.30;;;;;;;5.98;84.87;99632.34;5104746;28;20446;-70
2020/12/23 03:08:48;;;;;;;0.38;0.38;;;;;;;5.98;84.57;99624.59;5104825;28;20027;-70
2020/12/23 03:11:13;;;;;;;0.30;0.30;;;;;;;6.02;84.43;99635.78;5105009;28;20023;-71
2020/12/23 03:13:38;;;;;;;0.30;0.30;;;;;;;6.05;84.27;99635.78;5104557;28;20024;-70
2020/12/23 03:16:04;;;;;;;0.30;0.30;;;;;;;6.09;84.43;99637.50;5104650;28;20016;-70
2020/12/23 03:18:29;;;;;;;0.30;0.30;;;;;;;6.12;84.04;99628.91;5104752;28;20480;-71
2020/12/23 03:20:54;;;;;;;0.30;0.30;;;;;;;6.16;84.16;99640.91;5104891;28;20110;-69
2020/12/23 03:23:20;;;;;;;0.30;0.30;;;;;;;6.19;84.07;99634.03;5104640;28;20055;-68
2020/12/23 03:25:45;;;;;;;0.32;0.32;;;;;;;6.22;83.77;99634.88;5104439;28;20050;-70
2020/12/23 03:28:10;;;;;;;0.30;0.30;;;;;;;6.23;84.07;99627.13;5104630;28;20020;-70
2020/12/23 03:30:36;;;;;;;0.30;0.30;;;;;;;6.22;83.58;99624.56;5104183;28;20405;-70
2020/12/23 03:33:01;;;;;;;0.30;0.30;;;;;;;6.19;83.52;99616.00;5104550;28;20028;-69
2020/12/23 03:35:26;;;;;;;0.30;0.30;;;;;;;6.13;83.07;99626.34;5104235;28;20118;-70
2020/12/23 03:37:52;;;;;;;0.30;0.30;;;;;;;6.05;82.67;99618.59;5103021;28;20028;-72
2020/12/23 03:40:17;;;;;;;2.17;2.08;;;;;;;6.11;82.65;99622.03;5103195;28;20027;-70
2020/12/23 03:42:42;;;;;;;0.30;0.30;;;;;;;6.06;83.15;99625.47;5104193;28;20081;-70
2020/12/23 03:45:08;;;;;;;0.30;0.30;;;;;;;6.06;82.68;99625.47;5103920;28;20084;-71
2020/12/23 03:47:33;;;;;;;0.30;0.30;;;;;;;6.09;82.75;99623.78;5104138;28;20028;-70
2020/12/23 03:49:58;;;;;;;12.45;3.22;;;;;;;6.03;82.96;99622.00;5103235;28;20030;-70
2020/12/23 03:52:24;;;;;;;0.30;0.30;;;;;;;6.01;82.69;99627.16;5102674;28;20030;-70
2020/12/23 03:54:49;;;;;;;0.30;0.30;;;;;;;5.93;81.90;99608.28;5103983;28;20050;-69
2020/12/23 03:57:14;;;;;;;0.30;0.30;;;;;;;5.90;81.96;99616.03;5102734;28;20409;-69
2020/12/23 03:59:40;;;;;;;0.30;0.30;;;;;;;5.85;81.68;99620.34;5103483;28;20044;-68
2020/12/23 04:02:05;;;;;;;0.30;0.30;;;;;;;5.78;81.48;99628.06;5103923;28;20039;-69
2020/12/23 04:04:30;;;;;;;0.30;0.30;;;;;;;5.79;80.94;99631.50;5103873;28;20020;-69
2020/12/23 04:06:56;;;;;;;0.30;0.30;;;;;;;5.75;80.78;99634.97;5103932;28;20492;-71
2020/12/23 04:09:21;;;;;;;0.40;0.40;;;;;;;5.72;80.36;99624.66;5103669;28;20019;-68
2020/12/23 04:11:46;;;;;;;0.30;0.30;;;;;;;5.75;80.64;99629.81;5103615;28;20027;-70
2020/12/23 04:14:13;;;;;;;0.40;0.40;;;;;;;5.69;80.46;99631.53;5103300;28;20025;-69
2020/12/23 04:16:38;;;;;;;0.40;0.40;;;;;;;5.61;79.73;99625.50;5103879;28;20054;-70
2020/12/23 04:19:04;;;;;;;0.30;0.30;;;;;;;5.62;80.25;99634.97;5103569;28;20449;-69
2020/12/23 04:21:29;;;;;;;0.30;0.30;;;;;;;5.65;80.70;99623.78;5103870;28;20043;-69
2020/12/23 04:23:54;;;;;;;0.30;0.30;;;;;;;5.66;80.25;99631.53;5103576;28;20020;-69
2020/12/23 04:26:20;;;;;;;0.30;0.30;;;;;;;5.61;79.99;99627.25;5103626;28;20030;-70
2020/12/23 04:28:45;;;;;;;0.30;0.30;;;;;;;5.58;79.79;99622.94;5103216;28;20035;-69
2020/12/23 04:31:10;;;;;;;0.30;0.30;;;;;;;5.58;80.01;99626.38;5103541;28;20016;-69
2020/12/23 04:33:36;;;;;;;0.30;0.30;;;;;;;5.59;80.58;99624.66;5103274;28;20074;-69
2020/12/23 04:36:01;;;;;;;0.30;0.30;;;;;;;5.58;80.52;99634.09;5103638;28;20115;-69
2020/12/23 04:38:26;;;;;;;0.30;0.30;;;;;;;5.56;80.38;99628.09;5103449;28;20050;-69
2020/12/23 04:40:52;;;;;;;0.30;0.30;;;;;;;5.60;80.43;99638.38;5103416;28;20075;-69
2020/12/23 04:43:19;;;;;;;0.30;0.30;;;;;;;5.60;80.88;99636.69;5103556;28;20075;-69
2020/12/23 04:45:45;;;;;;;0.30;0.30;;;;;;;5.60;80.87;99646.97;5103150;28;20137;-68
2020/12/23 04:48:13;;;;;;;0.40;0.40;;;;;;;5.62;80.55;99647.84;5103608;28;20020;-69
2020/12/23 04:50:44;;;;;;;0.32;0.32;;;;;;;5.62;80.54;99660.72;5102057;28;20054;-70
2020/12/23 04:53:10;;;;;;;0.30;0.30;;;;;;;5.59;81.06;99640.13;5103288;28;20092;-70
2020/12/23 04:55:36;;;;;;;0.32;0.32;;;;;;;5.56;80.20;99653.84;5101870;28;20071;-69
2020/12/23 04:58:07;;;;;;;0.30;0.30;;;;;;;5.55;80.93;99656.41;5103370;28;20472;-70
2020/12/23 05:00:32;;;;;;;0.30;0.30;;;;;;;5.52;80.22;99664.13;5103116;28;20111;-70
2020/12/23 05:02:58;;;;;;;0.30;0.30;;;;;;;5.54;80.93;99665.84;5107513;28;20024;-70
2020/12/23 05:05:23;;;;;;;0.32;0.32;;;;;;;5.55;80.96;99664.13;5106963;28;20066;-69
2020/12/23 05:07:49;;;;;;;0.30;0.30;;;;;;;5.50;79.87;99663.28;5107273;28;20032;-70
2020/12/23 05:10:15;;;;;;;0.30;0.30;;;;;;;5.51;80.55;99657.28;5107276;28;20074;-70
2020/12/23 05:12:41;;;;;;;0.30;0.30;;;;;;;5.51;79.86;99660.69;5107202;28;20028;-70
2020/12/23 05:15:07;;;;;;;0.28;0.28;;;;;;;5.51;80.59;99665.00;5106815;28;20421;-70
2020/12/23 05:17:32;;;;;;;0.30;0.30;;;;;;;5.54;81.04;99667.59;5107297;28;20046;-70
2020/12/23 05:19:58;;;;;;;0.30;0.30;;;;;;;5.55;81.17;99674.44;5106974;28;20024;-71
2020/12/23 05:22:26;;;;;;;0.30;0.30;;;;;;;5.52;81.37;99669.28;5105716;28;20111;-69
2020/12/23 05:24:54;;;;;;;0.30;0.30;;;;;;;5.51;80.84;99667.59;5106835;28;20062;-71
2020/12/23 05:27:21;;;;;;;0.30;0.30;;;;;;;5.49;80.34;99670.16;5106855;28;20020;-69
2020/12/23 05:29:47;;;;;;;0.30;0.30;;;;;;;5.52;80.99;99664.13;5106453;28;20440;-70
2020/12/23 05:32:13;;;;;;;0.32;0.32;;;;;;;5.51;81.56;99662.44;5106582;28;20027;-70
2020/12/23 05:34:42;;;;;;;0.30;0.30;;;;;;;5.48;81.41;99660.69;5106695;28;20365;-70
2020/12/23 05:37:07;;;;;;;0.40;0.40;;;;;;;5.53;81.61;99683.88;5106847;28;20084;-69
2020/12/23 05:39:33;;;;;;;0.40;0.40;;;;;;;5.52;80.93;99689.88;5106559;28;20020;-69
2020/12/23 05:41:59;;;;;;;0.30;0.30;;;;;;;5.52;81.73;99689.88;5106502;28;20028;-71
2020/12/23 05:44:26;;;;;;;0.30;0.30;;;;;;;5.53;81.84;99689.00;5106205;28;20037;-71
2020/12/23 05:46:52;;;;;;;0.22;0.22;;;;;;;5.53;81.70;99704.47;5106536;28;20024;-71
2020/12/23 05:49:19;;;;;;;0.95;0.95;;;;;;;5.58;81.71;99698.47;5106599;28;20239;-69
2020/12/23 05:51:45;;;;;;;0.30;0.30;;;;;;;5.65;81.84;99701.94;5106487;28;20034;-69
2020/12/23 05:54:11;;;;;;;0.30;0.30;;;;;;;5.69;81.37;99703.63;5106137;28;20359;-69
2020/12/23 05:56:38;;;;;;;0.40;0.40;;;;;;;5.74;81.68;99706.22;5106511;28;20037;-69
2020/12/23 05:59:04;;;;;;;0.30;0.30;;;;;;;5.83;81.90;99706.19;5106130;28;20099;-69
2020/12/23 06:01:35;;;;;;;0.30;0.30;;;;;;;5.89;81.40;99707.06;5106386;28;20078;-69
2020/12/23 06:04:11;;;;;;;0.30;0.30;;;;;;;5.91;81.18;99703.63;5106242;28;20087;-69
2020/12/23 06:06:37;;;;;;;0.30;0.30;;;;;;;5.96;80.89;99706.19;5106389;28;20040;-70
2020/12/23 06:09:06;;;;;;;0.30;0.30;;;;;;;5.98;80.94;99708.75;5106259;28;20024;-70
2020/12/23 06:11:32;;;;;;;0.82;0.77;;;;;;;5.99;80.54;99711.34;5106168;28;20030;-70
2020/12/23 06:14:03;;;;;;;0.30;0.30;;;;;;;6.01;80.39;99704.47;5104824;28;20136;-68
2020/12/23 06:16:49;;;;;;;0.30;0.30;;;;;;;5.99;79.88;99710.50;5106091;28;20028;-69
2020/12/23 06:19:46;;;;;;;0.40;0.40;;;;;;;6.06;80.75;99704.50;5105927;28;20069;-68
2020/12/23 06:22:11;;;;;;;0.30;0.30;;;;;;;6.06;80.57;99717.38;5105709;28;20047;-69
2020/12/23 06:24:37;;;;;;;0.32;0.32;;;;;;;6.04;80.01;99721.63;5105608;28;20421;-68
2020/12/23 06:27:05;;;;;;;0.30;0.30;;;;;;;6.12;80.75;99725.09;5106215;28;20020;-69
2020/12/23 06:29:32;;;;;;;0.30;0.30;;;;;;;6.18;80.91;99716.53;5105394;28;20028;-69
2020/12/23 06:32:09;;;;;;;0.30;0.30;;;;;;;6.20;80.88;99712.22;5105793;28;20023;-68
2020/12/23 06:34:38;;;;;;;0.30;0.30;;;;;;;6.25;80.51;99715.66;5105639;28;20028;-69
2020/12/23 06:37:16;;;;;;;0.30;0.30;;;;;;;6.23;80.81;99708.78;5105733;28;20028;-68
2020/12/23 06:39:42;;;;;;;6.97;1.13;;;;;;;6.19;80.50;99713.94;5105536;28;20024;-69
2020/12/23 06:42:08;;;;;;;16.75;4.05;;;;;;;6.18;81.10;99719.94;5104184;28;20035;-69
2020/12/23 06:45:00;;;;;;;0.30;0.30;;;;;;;6.22;80.88;99696.75;5105089;28;20032;-68
2020/12/23 06:47:27;;;;;;;;;;;;;;;6.18;80.35;99712.22;5105840;28;20474;-68
2020/12/23 06:50:11;;;;;;;0.32;0.32;;;;;;;6.11;81.22;99714.81;5103840;28;19908;-69
2020/12/23 06:52:41;;;;;;;0.30;0.30;;;;;;;6.06;81.96;99718.25;5105210;28;20028;-68
2020/12/23 06:55:14;;;;;;;0.30;0.30;;;;;;;6.03;82.57;99719.94;5104790;28;20016;-68
2020/12/23 06:57:39;;;;;;;0.35;0.35;;;;;;;5.94;82.07;99715.66;5105317;28;20049;-69
2020/12/23 07:00:21;;;;;;;0.30;0.30;;;;;;;5.92;81.84;99725.09;5103196;28;20063;-69
2020/12/23 07:02:49;;;;;;;0.30;0.30;;;;;;;5.85;82.02;99707.94;5105276;28;20020;-68
2020/12/23 07:05:33;;;;;;;0.30;0.30;;;;;;;5.84;82.26;99714.81;5104553;28;20048;-66
2020/12/23 07:08:06;;;;;;;0.30;0.30;;;;;;;5.78;81.94;99714.81;5103608;28;20038;-65
2020/12/23 07:10:35;;;;;;;0.40;0.40;;;;;;;5.67;82.10;99705.34;5105138;28;20110;-66
2020/12/23 07:13:05;;;;;;;0.40;0.40;;;;;;;5.73;82.44;99714.81;5104769;28;20016;-65
2020/12/23 07:15:31;;;;;;;0.30;0.30;;;;;;;5.67;82.57;99718.22;5104380;28;20028;-67
2020/12/23 07:18:08;;;;;;;0.25;0.25;;;;;;;5.59;82.42;99707.06;5104828;28;20027;-66
2020/12/23 07:20:35;;;;;;;0.30;0.30;;;;;;;5.52;82.31;99697.59;5105100;28;20039;-68
2020/12/23 07:23:05;;;;;;;0.30;0.30;;;;;;;5.57;82.41;99701.91;5104789;28;20020;-67
2020/12/23 07:25:36;;;;;;;0.30;0.30;;;;;;;5.57;82.50;99708.78;5103393;28;20021;-67
2020/12/23 07:28:07;;;;;;;0.30;0.30;;;;;;;5.57;82.83;99714.75;5104690;28;20372;-66
2020/12/23 07:30:36;;;;;;;0.40;0.40;;;;;;;5.51;82.65;99701.06;5102837;28;20020;-66
2020/12/23 07:33:06;;;;;;;0.30;0.30;;;;;;;5.59;83.02;99707.06;5104394;28;20024;-67
2020/12/23 07:35:31;;;;;;;0.30;0.30;;;;;;;5.53;83.10;99702.75;5104073;28;20027;-67
2020/12/23 07:38:03;;;;;;;0.30;0.30;;;;;;;5.52;83.03;99705.34;5102990;28;20024;-66
2020/12/23 07:40:30;;;;;;;0.50;0.50;;;;;;;5.50;83.13;99718.22;5104111;28;20055;-66
2020/12/23 07:42:59;;;;;;;0.30;0.30;;;;;;;5.53;83.09;99730.22;5104180;28;20020;-66
2020/12/23 07:45:28;;;;;;;0.30;0.30;;;;;;;5.50;82.84;99731.06;5103785;28;20016;-67
2020/12/23 07:48:05;;;;;;;1.85;1.20;;;;;;;5.50;82.99;99725.06;5104290;28;20047;-68
2020/12/23 07:50:33;;;;;;;0.30;0.30;;;;;;;5.61;83.01;99730.25;5103939;28;20024;-66
2020/12/23 07:53:12;;;;;;;0.35;0.35;;;;;;;5.58;83.09;99731.09;5103879;28;20107;-67
2020/12/23 07:55:40;;;;;;;0.30;0.30;;;;;;;5.56;82.98;99722.50;5102614;28;20120;-66
2020/12/23 07:58:05;;;;;;;0.30;0.30;;;;;;;5.58;83.08;99731.97;5104145;28;20521;-66
2020/12/23 08:00:31;;;;;;;0.30;0.30;;;;;;;5.56;83.06;99723.38;5103635;28;20119;-65
2020/12/23 08:02:57;;;;;;;0.30;0.30;;;;;;;5.54;83.19;99726.81;5103919;28;20020;-66
2020/12/23 08:05:22;;;;;;;0.30;0.30;;;;;;;5.56;82.84;99735.38;5103375;28;20181;-71
2020/12/23 08:07:48;;;;;;;0.30;0.30;;;;;;;5.56;83.38;99737.94;5103965;28;20034;-69
2020/12/23 08:10:15;;;;;;;0.30;0.30;;;;;;;5.56;83.41;99737.94;5103889;28;20024;-70
2020/12/23 08:12:42;;;;;;;0.30;0.30;;;;;;;5.57;83.40;99739.69;5103892;28;20043;-70
2020/12/23 08:15:12;;;;;;;0.30;0.30;;;;;;;5.55;83.07;99731.94;5103445;28;20027;-69
2020/12/23 08:17:37;;;;;;;0.28;0.28;;;;;;;5.55;82.77;99731.09;5103863;28;20024;-70
2020/12/23 08:20:09;;;;;;;0.40;0.40;;;;;;;5.60;82.95;99741.38;5102458;28;20059;-69
2020/12/23 08:22:36;;;;;;;0.30;0.30;;;;;;;5.59;82.80;99737.97;5104009;28;20036;-69
2020/12/23 08:25:25;;;;;;;0.30;0.30;;;;;;;5.57;82.17;99730.22;5103186;28;20053;-69
2020/12/23 08:27:52;;;;;;;0.30;0.30;;;;;;;5.63;82.50;99733.66;5103676;28;20032;-70
2020/12/23 08:30:25;;;;;;;0.30;0.30;;;;;;;5.67;82.60;99740.56;5103184;28;20476;-71
2020/12/23 08:32:55;;;;;;;0.30;0.30;;;;;;;5.75;82.60;99741.41;5103543;28;20032;-69
2020/12/23 08:35:26;;;;;;;0.30;0.30;;;;;;;5.85;82.91;99738.84;5102982;28;20028;-69
2020/12/23 08:37:51;;;;;;;0.30;0.30;;;;;;;5.99;82.79;99737.09;5103581;28;20034;-69
2020/12/23 08:40:17;;;;;;;0.77;0.77;;;;;;;6.09;82.95;99735.41;5103590;28;20463;-69
2020/12/23 08:42:52;;;;;;;0.30;0.30;;;;;;;6.19;82.20;99733.69;5103531;28;20484;-70
2020/12/23 08:45:35;;;;;;;0.30;0.30;;;;;;;6.40;82.26;99758.59;5103197;28;20024;-70
2020/12/23 08:48:07;;;;;;;0.30;0.30;;;;;;;6.61;81.78;99764.56;5103949;28;20028;-69
2020/12/23 08:50:33;;;;;;;;;;;;;;;6.72;81.60;99769.69;5104158;28;20016;-69
2020/12/23 08:52:59;;;;;;;0.30;0.30;;;;;;;6.89;82.34;99761.91;5104029;28;19919;-71
2020/12/23 08:55:24;;;;;;;0.30;0.30;;;;;;;7.12;82.38;99742.88;5103630;28;20030;-73
2020/12/23 08:58:07;;;;;;;0.28;0.28;;;;;;;7.34;80.79;99753.09;5103959;28;20492;-71
2020/12/23 09:00:32;;;;;;;0.35;0.35;;;;;;;7.68;80.69;99745.13;5103416;28;20020;-72
2020/12/23 09:02:58;;;;;;;0.30;0.30;;;;;;;7.94;79.38;99744.06;5102646;28;20051;-71
2020/12/23 09:05:27;;;;;;;0.20;0.20;;;;;;;8.17;78.85;99729.22;5103519;28;20047;-72
2020/12/23 09:08:09;;;;;;;4.05;3.20;;;;;;;8.34;78.40;99747.16;5103701;28;20083;-72
2020/12/23 09:10:38;;;;;;;0.95;0.95;;;;;;;8.59;79.09;99756.44;5103680;28;20334;-69
2020/12/23 09:13:12;;;;;;;0.30;0.30;;;;;;;8.66;78.11;99751.16;5103416;28;20029;-71
2020/12/23 09:15:39;;;;;;;0.50;0.50;;;;;;;8.55;78.62;99756.47;5103105;28;20024;-71
2020/12/23 09:18:08;;;;;;;0.30;0.30;;;;;;;8.42;78.24;99755.69;5103483;28;20024;-71
2020/12/23 09:20:35;;;;;;;0.30;0.30;;;;;;;8.21;78.20;99746.41;5103195;28;20056;-71
2020/12/23 09:23:02;;;;;;;0.30;0.30;;;;;;;8.25;78.58;99765.34;5103365;28;20016;-72
2020/12/23 09:25:31;;;;;;;0.20;0.20;;;;;;;8.02;78.36;99766.44;5103110;28;20020;-69
2020/12/23 09:28:03;;;;;;;0.30;0.30;;;;;;;7.68;77.52;99773.53;5103290;28;20024;-71
2020/12/23 09:30:33;;;;;;;0.30;0.30;;;;;;;7.50;78.53;99771.94;5102880;28;20032;-71
2020/12/23 09:32:59;;;;;;;0.30;0.30;;;;;;;7.36;79.34;99781.50;5103252;28;20108;-72
2020/12/23 09:35:26;;;;;;;0.30;0.30;;;;;;;7.21;79.87;99787.56;5102967;28;20024;-71
2020/12/23 09:38:08;;;;;;;0.30;0.30;;;;;;;7.04;79.45;99778.19;5103125;28;20012;-71
2020/12/23 09:40:35;;;;;;;0.30;0.30;;;;;;;6.98;79.75;99783.38;5103194;28;20032;-72
2020/12/23 09:43:01;;;;;;;0.30;0.30;;;;;;;6.90;79.79;99788.56;5102894;28;20077;-71
2020/12/23 09:45:27;;;;;;;0.30;0.30;;;;;;;6.89;80.41;99798.03;5102591;28;20028;-71
2020/12/23 09:47:52;;;;;;;0.73;0.73;;;;;;;6.92;80.25;99802.31;5103829;28;20114;-71
2020/12/23 09:50:18;;;;;;;0.30;0.30;;;;;;;7.01;81.83;99797.13;5106495;28;20028;-71
2020/12/23 09:52:43;;;;;;;0.30;0.30;;;;;;;6.92;81.48;99787.69;5106435;28;20051;-71
2020/12/23 09:55:09;;;;;;;0.28;0.28;;;;;;;7.00;82.03;99795.41;5106112;28;20051;-69
2020/12/23 09:57:35;;;;;;;0.30;0.30;;;;;;;7.02;80.86;99793.69;5106501;28;20020;-71
2020/12/23 10:00:00;;;;;;;0.30;0.30;;;;;;;7.04;81.58;99785.94;5105985;28;20024;-71
2020/12/23 10:02:26;;;;;;;0.30;0.30;;;;;;;7.04;81.21;99784.22;5106370;28;20446;-71
2020/12/23 10:04:51;;;;;;;0.30;0.30;;;;;;;7.05;81.20;99792.81;5105912;28;20410;-70
2020/12/23 10:07:19;;;;;;;0.30;0.30;;;;;;;6.94;81.12;99787.69;5106134;28;20032;-70
2020/12/23 10:09:45;;;;;;;0.30;0.30;;;;;;;6.86;81.83;99777.41;5105975;28;20049;-71
2020/12/23 10:12:11;;;;;;;0.30;0.30;;;;;;;6.93;81.66;99798.88;5106055;28;20103;-70
2020/12/23 10:14:36;;;;;;;0.30;0.30;;;;;;;6.85;81.17;99779.97;5105670;28;20049;-71
2020/12/23 10:17:01;;;;;;;0.63;0.63;;;;;;;6.85;80.85;99795.47;5106002;28;20423;-71
2020/12/23 10:19:27;;;;;;;0.40;0.40;;;;;;;6.94;80.61;99813.50;5105861;28;20024;-71
2020/12/23 10:21:52;;;;;;;0.20;0.20;;;;;;;6.93;80.60;99814.38;5104683;28;20169;-71
2020/12/23 10:24:17;;;;;;;0.30;0.30;;;;;;;7.02;81.15;99821.22;5105624;28;20020;-71
2020/12/23 10:26:43;;;;;;;0.30;0.30;;;;;;;7.08;81.01;99813.44;5105658;28;20024;-70
2020/12/23 10:29:08;;;;;;;0.30;0.30;;;;;;;7.15;80.88;99809.13;5105447;28;20367;-70
2020/12/23 10:31:33;;;;;;;0.30;0.30;;;;;;;7.23;80.54;99815.13;5105523;28;20024;-71
2020/12/23 10:33:59;;;;;;;0.30;0.30;;;;;;;7.24;80.35;99800.47;5103736;28;20111;-70
2020/12/23 10:36:24;;;;;;;0.30;0.30;;;;;;;7.30;80.43;99810.78;5105486;28;20158;-71
2020/12/23 10:38:51;;;;;;;0.30;0.30;;;;;;;7.17;80.20;99794.50;5105267;28;20379;-71
2020/12/23 10:41:19;;;;;;;0.30;0.30;;;;;;;7.19;79.94;99795.31;5105425;28;20107;-72
2020/12/23 10:43:44;;;;;;;0.30;0.30;;;;;;;7.24;80.36;99803.03;5105210;28;20039;-71
2020/12/23 10:46:10;;;;;;;0.40;0.40;;;;;;;7.21;80.49;99809.09;5104940;28;20042;-71
2020/12/23 10:48:35;;;;;;;0.30;0.30;;;;;;;7.24;81.31;99803.91;5105160;28;20024;-70
2020/12/23 10:51:03;;;;;;;0.28;0.28;;;;;;;7.18;80.80;99797.06;5105296;28;20051;-72
2020/12/23 10:53:30;;;;;;;0.30;0.30;;;;;;;7.14;79.80;99797.94;5105001;28;20020;-71
2020/12/23 10:55:55;;;;;;;0.30;0.30;;;;;;;7.23;80.16;99807.38;5104826;28;20377;-71
2020/12/23 10:58:21;;;;;;;0.30;0.30;;;;;;;7.27;79.57;99806.47;5103165;28;20012;-71
2020/12/23 11:00:46;;;;;;;0.30;0.30;;;;;;;7.35;80.65;99796.13;5104773;28;20020;-71
2020/12/23 11:03:11;;;;;;;0.20;0.20;;;;;;;7.36;79.68;99796.97;5105046;28;20474;-71
2020/12/23 11:05:37;;;;;;;0.30;0.30;;;;;;;7.29;79.33;99802.19;5104766;28;20036;-72
2020/12/23 11:08:02;;;;;;;0.38;0.38;;;;;;;7.35;79.79;99800.44;5105105;28;20046;-70
2020/12/23 11:10:27;;;;;;;0.30;0.30;;;;;;;7.48;79.71;99812.41;5104875;28;20020;-69
2020/12/23 11:12:53;;;;;;;0.30;0.30;;;;;;;7.72;80.69;99799.34;5104704;28;20024;-70
2020/12/23 11:15:19;;;;;;;0.20;0.20;;;;;;;7.82;80.13;99803.59;5104487;28;20024;-71
2020/12/23 11:17:45;;;;;;;0.30;0.30;;;;;;;7.89;79.99;99802.69;5105005;28;20224;-71
2020/12/23 11:20:11;;;;;;;0.30;0.30;;;;;;;8.06;79.81;99804.28;5104953;28;20156;-70
2020/12/23 11:22:36;;;;;;;0.30;0.30;;;;;;;8.15;79.52;99791.28;5104790;28;20028;-70
2020/12/23 11:25:03;;;;;;;0.30;0.30;;;;;;;8.15;78.70;99788.72;5104446;28;20078;-71
2020/12/23 11:27:28;;;;;;;0.30;0.30;;;;;;;8.22;79.26;99780.88;5104827;28;20112;-71
2020/12/23 11:29:54;;;;;;;0.30;0.30;;;;;;;8.28;78.70;99778.25;5104431;28;20392;-71
2020/12/23 11:32:19;;;;;;;0.30;0.30;;;;;;;8.27;78.47;99773.97;5104486;28;20024;-70
2020/12/23 11:34:44;;;;;;;0.30;0.30;;;;;;;8.21;78.35;99777.44;5104266;28;20034;-71
2020/12/23 11:37:10;;;;;;;0.30;0.30;;;;;;;8.09;78.49;99773.25;5104392;28;20248;-70
2020/12/23 11:39:35;;;;;;;0.30;0.30;;;;;;;7.97;78.32;99775.94;5104643;28;20028;-71
2020/12/23 11:42:00;;;;;;;0.25;0.25;;;;;;;7.83;78.28;99782.06;5104494;28;20456;-71